createdAt,value
2022-08-07T00:00:40.054Z,13.36
2022-08-07T00:03:08.756Z,13.29
2022-08-07T00:05:36.268Z,13.30
2022-08-07T00:08:04.685Z,13.26
2022-08-07T00:10:31.727Z,13.15
2022-08-07T00:13:09.653Z,13.13
2022-08-07T00:15:46.753Z,13.15
2022-08-07T00:18:24.033Z,13.08
2022-08-07T00:20:53.263Z,13.07
2022-08-07T00:23:21.363Z,13.02
2022-08-07T00:25:58.149Z,13.00
2022-08-07T00:28:34.157Z,12.93
2022-08-07T00:31:12.323Z,12.92
2022-08-07T00:33:40.678Z,12.98
2022-08-07T00:36:08.342Z,12.92
2022-08-07T00:38:36.790Z,12.84
2022-08-07T00:41:09.835Z,12.81
2022-08-07T00:43:59.450Z,12.76
2022-08-07T00:46:27.435Z,12.76
2022-08-07T00:48:53.889Z,12.71
2022-08-07T00:51:20.469Z,12.66
2022-08-07T00:53:50.200Z,12.70
2022-08-07T00:56:22.612Z,12.67
2022-08-07T00:58:49.566Z,12.61
2022-08-07T01:01:17.862Z,12.56
2022-08-07T01:03:55.611Z,12.54
2022-08-07T01:06:29.242Z,12.55
2022-08-07T01:08:58.710Z,12.49
2022-08-07T01:12:23.499Z,12.50
2022-08-07T01:14:16.765Z,12.56
2022-08-07T01:16:46.857Z,12.52
2022-08-07T01:19:19.026Z,12.49
2022-08-07T01:21:48.199Z,12.43
2022-08-07T01:24:21.197Z,12.46
2022-08-07T01:26:51.778Z,12.50
2022-08-07T01:29:22.078Z,12.46
2022-08-07T01:31:49.443Z,12.46
2022-08-07T01:34:18.660Z,12.42
2022-08-07T01:36:52.785Z,12.31
2022-08-07T01:39:26.963Z,12.28
2022-08-07T01:42:37.550Z,12.20
2022-08-07T01:44:54.859Z,12.12
2022-08-07T01:48:20.529Z,12.10
2022-08-07T01:50:09.098Z,12.10
2022-08-07T01:52:40.854Z,12.10
2022-08-07T01:55:22.491Z,12.08
2022-08-07T01:58:06.895Z,12.04
2022-08-07T02:00:45.449Z,11.99
2022-08-07T02:03:25.014Z,12.02
2022-08-07T02:06:31.590Z,11.96
2022-08-07T02:09:00.506Z,11.99
2022-08-07T02:12:04.032Z,11.99
2022-08-07T02:14:36.277Z,11.94
2022-08-07T02:17:10.003Z,11.95
2022-08-07T02:20:04.349Z,11.90
2022-08-07T02:22:26.970Z,11.90
2022-08-07T02:24:56.286Z,11.94
2022-08-07T02:27:25.110Z,11.84
2022-08-07T02:29:54.806Z,11.72
2022-08-07T02:32:23.499Z,11.71
2022-08-07T02:34:56.209Z,11.69
2022-08-07T02:37:26.651Z,11.71
2022-08-07T02:40:02.331Z,11.69
2022-08-07T02:42:43.565Z,11.61
2022-08-07T02:45:58.144Z,11.70
2022-08-07T02:48:01.635Z,11.71
2022-08-07T02:50:30.744Z,11.72
2022-08-07T02:53:06.154Z,11.67
2022-08-07T02:56:03.115Z,11.59
2022-08-07T02:58:27.255Z,11.54
2022-08-07T03:00:57.350Z,11.49
2022-08-07T03:03:26.720Z,11.43
2022-08-07T03:06:16.377Z,11.39
2022-08-07T03:08:43.714Z,11.37
2022-08-07T03:11:11.015Z,11.36
2022-08-07T03:13:38.663Z,11.37
2022-08-07T03:16:06.144Z,11.39
2022-08-07T03:18:34.935Z,11.41
2022-08-07T03:21:05.042Z,11.45
2022-08-07T03:24:20.524Z,11.38
2022-08-07T03:26:27.920Z,11.38
2022-08-07T03:28:55.917Z,11.37
2022-08-07T03:31:42.769Z,11.31
2022-08-07T03:34:18.753Z,11.30
2022-08-07T03:36:52.860Z,11.25
2022-08-07T03:39:42.042Z,11.29
2022-08-07T03:42:07.472Z,11.32
2022-08-07T03:44:36.603Z,11.35
2022-08-07T03:47:13.064Z,11.30
2022-08-07T03:49:42.516Z,11.29
2022-08-07T03:52:27.021Z,11.25
2022-08-07T03:54:59.047Z,11.20
2022-08-07T03:58:32.542Z,11.18
2022-08-07T04:00:21.247Z,11.16
2022-08-07T04:02:58.901Z,11.19
2022-08-07T04:05:39.572Z,11.20
2022-08-07T04:08:11.064Z,11.19
2022-08-07T04:10:38.833Z,11.22
2022-08-07T04:13:07.660Z,11.21
2022-08-07T04:15:43.306Z,11.22
2022-08-07T04:18:59.067Z,11.22
2022-08-07T04:21:00.631Z,11.21
2022-08-07T04:23:43.628Z,11.25
2022-08-07T04:26:16.944Z,11.26
2022-08-07T04:28:48.423Z,11.20
2022-08-07T04:31:19.994Z,11.11
2022-08-07T04:33:47.484Z,11.03
2022-08-07T04:36:22.790Z,11.14
2022-08-07T04:38:52.945Z,11.18
2022-08-07T04:41:19.449Z,11.13
2022-08-07T04:44:10.063Z,11.11
2022-08-07T04:47:04.936Z,11.12
2022-08-07T04:49:37.810Z,11.13
2022-08-07T04:52:37.551Z,11.11
2022-08-07T04:58:07.749Z,11.23
2022-08-07T04:59:07.738Z,11.35
2022-08-07T05:01:40.782Z,11.43
2022-08-07T05:04:18.016Z,11.47
2022-08-07T05:06:56.784Z,11.53
2022-08-07T05:09:45.780Z,11.66
2022-08-07T05:12:26.963Z,11.71
2022-08-07T05:15:16.011Z,11.81
2022-08-07T05:17:55.595Z,11.94
2022-08-07T05:20:31.053Z,12.02
2022-08-07T05:23:02.086Z,12.08
2022-08-07T05:25:54.533Z,12.11
2022-08-07T05:28:22.648Z,12.23
2022-08-07T05:30:52.482Z,12.40
2022-08-07T05:33:21.536Z,12.53
2022-08-07T05:35:52.885Z,12.64
2022-08-07T05:38:59.995Z,12.79
2022-08-07T05:41:12.366Z,12.94
2022-08-07T05:44:01.324Z,13.08
2022-08-07T05:46:30.953Z,13.25
2022-08-07T05:48:59.743Z,13.38
2022-08-07T05:51:31.641Z,13.52
2022-08-07T05:54:13.063Z,13.65
2022-08-07T05:56:51.340Z,13.77
2022-08-07T05:59:21.019Z,13.93
2022-08-07T06:01:49.402Z,14.06
2022-08-07T06:04:18.044Z,14.19
2022-08-07T06:06:47.761Z,14.36
2022-08-07T06:10:04.649Z,14.49
2022-08-07T06:12:15.404Z,14.68
2022-08-07T06:14:43.082Z,14.81
2022-08-07T06:17:19.236Z,14.96
2022-08-07T06:20:03.647Z,15.10
2022-08-07T06:22:38.896Z,15.22
2022-08-07T06:25:10.152Z,15.35
2022-08-07T06:27:59.674Z,15.50
2022-08-07T06:30:32.248Z,15.64
2022-08-07T06:33:10.061Z,15.75
2022-08-07T06:35:47.565Z,15.86
2022-08-07T06:38:30.492Z,15.97
2022-08-07T06:41:01.121Z,16.07
2022-08-07T06:43:39.894Z,16.18
2022-08-07T06:46:13.254Z,16.29
2022-08-07T06:48:42.040Z,16.38
2022-08-07T06:51:15.722Z,16.45
2022-08-07T06:55:28.486Z,16.53
2022-08-07T06:56:51.432Z,16.65
2022-08-07T07:00:14.423Z,16.74
2022-08-07T07:02:53.495Z,16.85
2022-08-07T07:05:03.186Z,16.90
2022-08-07T07:07:59.646Z,17.00
2022-08-07T07:10:26.916Z,17.09
2022-08-07T07:12:55.802Z,17.21
2022-08-07T07:15:32.542Z,17.31
2022-08-07T07:18:47.186Z,17.42
2022-08-07T07:21:19.647Z,17.49
2022-08-07T07:24:09.879Z,17.57
2022-08-07T07:26:37.919Z,17.69
2022-08-07T07:29:38.446Z,17.78
2022-08-07T07:32:07.922Z,17.86
2022-08-07T07:34:39.653Z,17.96
2022-08-07T07:37:22.054Z,18.03
2022-08-07T07:39:58.006Z,18.09
2022-08-07T07:42:32.905Z,18.21
2022-08-07T07:45:05.642Z,18.27
2022-08-07T07:47:51.945Z,18.36
2022-08-07T07:50:33.519Z,18.45
2022-08-07T07:53:20.499Z,18.52
2022-08-07T07:55:57.995Z,18.58
2022-08-07T07:58:40.464Z,18.69
2022-08-07T08:02:03.603Z,18.74
2022-08-07T08:04:10.909Z,18.83
2022-08-07T08:06:50.889Z,18.87
2022-08-07T08:09:23.313Z,18.95
2022-08-07T08:12:02.865Z,19.08
2022-08-07T08:14:36.369Z,19.20
2022-08-07T08:17:55.842Z,19.24
2022-08-07T08:20:17.030Z,19.31
2022-08-07T08:23:08.165Z,19.40
2022-08-07T08:25:56.694Z,19.50
2022-08-07T08:28:38.667Z,19.62
2022-08-07T08:31:10.800Z,19.73
2022-08-07T08:33:49.295Z,19.78
2022-08-07T08:36:25.710Z,19.84
2022-08-07T08:39:00.081Z,19.90
2022-08-07T08:41:56.647Z,19.96
2022-08-07T08:44:46.696Z,20.00
2022-08-07T08:47:26.247Z,20.13
2022-08-07T08:50:08.316Z,20.24
2022-08-07T08:52:54.331Z,20.39
2022-08-07T08:55:55.535Z,20.63
2022-08-07T08:58:28.629Z,20.80
2022-08-07T09:00:59.206Z,20.74
2022-08-07T09:03:49.907Z,20.89
2022-08-07T09:06:42.807Z,21.04
2022-08-07T09:09:36.936Z,21.21
2022-08-07T09:12:20.098Z,21.30
2022-08-07T09:16:23.409Z,21.44
2022-08-07T09:18:27.885Z,21.67
2022-08-07T09:21:33.954Z,21.80
2022-08-07T09:24:54.980Z,21.85
2022-08-07T09:27:59.462Z,21.91
2022-08-07T09:30:41.745Z,21.87
2022-08-07T09:33:41.190Z,21.98
2022-08-07T09:36:18.660Z,22.05
2022-08-07T09:38:54.238Z,22.12
2022-08-07T09:41:59.113Z,22.23
2022-08-07T09:47:52.605Z,22.30
2022-08-07T09:48:04.039Z,22.43
2022-08-07T09:50:59.815Z,22.48
2022-08-07T09:53:41.180Z,22.58
2022-08-07T09:56:41.833Z,22.84
2022-08-07T10:00:00.893Z,23.04
2022-08-07T10:04:04.792Z,23.24
2022-08-07T10:06:27.597Z,23.32
2022-08-07T10:09:10.154Z,23.27
2022-08-07T10:12:01.167Z,23.15
2022-08-07T10:14:55.190Z,23.07
2022-08-07T10:18:01.758Z,23.22
2022-08-07T10:20:45.402Z,23.50
2022-08-07T10:24:06.018Z,23.61
2022-08-07T10:26:53.864Z,23.83
2022-08-07T10:29:45.651Z,24.03
2022-08-07T10:32:52.313Z,24.16
2022-08-07T10:35:56.328Z,24.18
2022-08-07T10:38:36.102Z,24.24
2022-08-07T10:41:53.053Z,24.36
2022-08-07T10:45:01.866Z,24.59
2022-08-07T10:48:05.755Z,24.59
2022-08-07T10:51:07.841Z,24.49
2022-08-07T10:53:49.582Z,24.71
2022-08-07T10:56:37.141Z,24.93
2022-08-07T10:59:31.882Z,25.00
2022-08-07T11:02:32.843Z,25.18
2022-08-07T11:05:24.911Z,25.31
2022-08-07T11:08:39.174Z,25.38
2022-08-07T11:11:14.095Z,25.73
2022-08-07T11:14:43.608Z,25.89
2022-08-07T11:16:55.775Z,26.06
2022-08-07T11:19:47.004Z,25.92
2022-08-07T11:22:45.575Z,26.13
2022-08-07T11:25:49.730Z,26.06
2022-08-07T11:28:53.455Z,26.09
2022-08-07T11:31:35.363Z,26.36
2022-08-07T11:34:12.491Z,26.52
2022-08-07T11:37:01.240Z,26.76
2022-08-07T11:40:00.262Z,27.00
2022-08-07T11:43:01.739Z,27.10
2022-08-07T11:45:58.437Z,27.24
2022-08-07T11:49:27.847Z,27.32
2022-08-07T11:54:01.413Z,27.74
2022-08-07T11:56:25.149Z,27.89
2022-08-07T11:59:20.574Z,27.92
2022-08-07T12:02:30.026Z,28.24
2022-08-07T12:05:08.993Z,28.23
2022-08-07T12:07:53.668Z,28.11
2022-08-07T12:10:43.546Z,28.18
2022-08-07T12:13:37.892Z,28.30
2022-08-07T12:16:57.158Z,28.56
2022-08-07T12:27:15.862Z,28.59
2022-08-07T12:30:10.099Z,28.88
2022-08-07T12:34:01.329Z,29.06
2022-08-07T12:40:47.962Z,29.86
2022-08-07T12:44:01.850Z,29.91
2022-08-07T12:46:32.794Z,29.66
2022-08-07T12:49:39.852Z,29.46
2022-08-07T12:52:24.558Z,29.39
2022-08-07T12:55:17.484Z,29.70
2022-08-07T12:58:01.796Z,29.80
2022-08-07T13:01:36.588Z,29.71
2022-08-07T13:04:34.525Z,29.81
2022-08-07T13:10:52.627Z,29.54
2022-08-07T13:13:50.055Z,29.50
2022-08-07T13:16:52.462Z,29.47
2022-08-07T13:19:54.698Z,29.61
2022-08-07T13:22:34.338Z,29.64
2022-08-07T13:25:15.405Z,29.59
2022-08-07T13:28:11.258Z,29.66
2022-08-07T13:30:53.573Z,29.59
2022-08-07T13:34:31.449Z,29.81
2022-08-07T13:36:42.433Z,30.00
2022-08-07T13:39:49.433Z,30.02
2022-08-07T13:42:14.195Z,29.80
2022-08-07T13:45:11.804Z,29.94
2022-08-07T13:48:05.769Z,30.02
2022-08-07T13:50:35.356Z,30.22
2022-08-07T13:53:21.911Z,30.45
2022-08-07T13:55:54.745Z,30.79
2022-08-07T13:58:56.080Z,31.33
2022-08-07T14:01:26.352Z,31.34
2022-08-07T14:04:05.221Z,30.98
2022-08-07T14:06:50.289Z,31.21
2022-08-07T14:10:01.382Z,31.70
2022-08-07T14:12:27.472Z,31.99
2022-08-07T14:15:02.904Z,32.11
2022-08-07T14:18:24.450Z,32.12
2022-08-07T14:20:44.058Z,32.29
2022-08-07T14:23:58.780Z,32.23
2022-08-07T14:26:29.654Z,32.10
2022-08-07T14:30:02.651Z,31.99
2022-08-07T14:31:59.273Z,32.21
2022-08-07T14:34:30.437Z,32.48
2022-08-07T14:40:26.529Z,32.41
2022-08-07T14:43:57.265Z,31.80
2022-08-07T14:45:56.387Z,31.16
2022-08-07T14:49:56.150Z,31.15
2022-08-07T14:55:19.468Z,32.16
2022-08-07T14:57:59.088Z,32.49
2022-08-07T15:04:02.449Z,32.47
2022-08-07T15:07:51.399Z,32.47
2022-08-07T15:10:58.747Z,32.77
2022-08-07T15:13:38.926Z,32.59
2022-08-07T15:16:31.007Z,32.76
2022-08-07T15:19:01.530Z,33.22
2022-08-07T15:21:44.041Z,33.33
2022-08-07T15:25:18.431Z,33.31
2022-08-07T15:28:47.226Z,33.21
2022-08-07T15:32:39.047Z,33.04
2022-08-07T15:34:33.817Z,32.94
2022-08-07T15:52:51.668Z,31.50
2022-08-07T15:55:20.899Z,31.52
2022-08-07T15:57:54.018Z,31.85
2022-08-07T16:00:34.499Z,32.09
2022-08-07T16:03:21.835Z,31.75
2022-08-07T16:05:59.163Z,31.82
2022-08-07T16:08:32.551Z,32.25
2022-08-07T16:11:29.140Z,32.46
2022-08-07T16:14:07.443Z,32.47
2022-08-07T16:17:03.075Z,32.63
2022-08-07T16:20:00.042Z,32.37
2022-08-07T16:22:33.674Z,31.81
2022-08-07T16:25:54.117Z,31.67
2022-08-07T16:29:18.415Z,31.49
2022-08-07T16:31:50.129Z,31.26
2022-08-07T16:34:27.566Z,30.80
2022-08-07T16:38:05.884Z,30.77
2022-08-07T16:40:56.792Z,30.93
2022-08-07T16:44:05.531Z,31.20
2022-08-07T16:47:40.267Z,31.18
2022-08-07T16:50:35.809Z,31.24
2022-08-07T16:54:01.235Z,31.62
2022-08-07T16:56:28.208Z,32.03
2022-08-07T16:59:10.816Z,31.64
2022-08-07T17:02:15.464Z,32.09
2022-08-07T17:06:02.347Z,32.51
2022-08-07T17:09:10.521Z,32.56
2022-08-07T17:12:36.779Z,32.39
2022-08-07T17:15:20.202Z,32.55
2022-08-07T17:17:47.477Z,33.00
2022-08-07T17:20:37.423Z,33.22
2022-08-07T17:23:22.725Z,33.11
2022-08-07T17:26:02.442Z,33.06
2022-08-07T17:28:57.650Z,33.18
2022-08-07T17:32:02.823Z,32.93
2022-08-07T17:34:57.200Z,33.29
2022-08-07T17:38:09.678Z,33.25
2022-08-07T17:40:31.824Z,33.40
2022-08-07T17:43:17.879Z,33.52
2022-08-07T17:45:57.852Z,33.57
2022-08-07T17:48:34.177Z,33.21
2022-08-07T17:51:06.948Z,32.69
2022-08-07T17:54:00.824Z,31.16
2022-08-07T17:56:52.482Z,29.69
2022-08-07T17:59:42.031Z,28.60
2022-08-07T18:02:23.198Z,27.76
2022-08-07T18:05:21.795Z,26.86
2022-08-07T18:08:15.483Z,26.25
2022-08-07T18:12:07.257Z,25.76
2022-08-07T18:14:23.890Z,25.22
2022-08-07T18:17:07.451Z,24.91
2022-08-07T18:21:07.641Z,24.60
2022-08-07T18:22:52.691Z,24.33
2022-08-07T18:25:40.723Z,24.19
2022-08-07T18:28:34.022Z,23.99
2022-08-07T18:31:14.537Z,23.72
2022-08-07T18:34:37.808Z,23.52
2022-08-07T18:37:09.418Z,23.40
2022-08-07T18:40:09.059Z,23.16
2022-08-07T18:43:03.612Z,22.93
2022-08-07T18:46:25.207Z,22.76
2022-08-07T18:50:06.025Z,22.75
2022-08-07T18:52:52.057Z,22.59
2022-08-07T18:55:42.843Z,22.43
2022-08-07T18:58:37.210Z,22.28
2022-08-07T19:02:19.232Z,22.21
2022-08-07T19:04:54.765Z,22.05
2022-08-07T19:08:19.401Z,22.00
2022-08-07T19:10:59.501Z,21.87
2022-08-07T19:13:37.214Z,21.83
2022-08-07T19:17:04.168Z,21.76
2022-08-07T19:19:19.703Z,21.65
2022-08-07T19:22:04.859Z,21.57
2022-08-07T19:24:44.430Z,21.46
2022-08-07T19:28:57.107Z,21.42
2022-08-07T19:31:01.410Z,21.33
2022-08-07T19:33:10.232Z,21.24
2022-08-07T19:35:42.230Z,21.17
2022-08-07T19:38:17.257Z,21.10
2022-08-07T19:40:49.388Z,21.06
2022-08-07T19:43:43.943Z,20.98
2022-08-07T19:46:16.056Z,20.86
2022-08-07T19:48:53.705Z,20.75
2022-08-07T19:51:51.234Z,20.66
2022-08-07T19:54:33.608Z,20.61
2022-08-07T19:58:01.510Z,20.50
2022-08-07T19:59:54.192Z,20.46
2022-08-07T20:02:34.946Z,20.38
2022-08-07T20:05:14.081Z,20.34
2022-08-07T20:07:47.397Z,20.28
2022-08-07T20:10:35.702Z,20.23
2022-08-07T20:13:23.663Z,20.14
2022-08-07T20:15:57.598Z,20.05
2022-08-07T20:18:32.394Z,20.01
2022-08-07T20:21:14.334Z,19.92
2022-08-07T20:23:53.869Z,19.83
2022-08-07T20:26:38.885Z,19.72
2022-08-07T20:29:24.446Z,19.68
2022-08-07T20:32:04.893Z,19.57
2022-08-07T20:34:50.326Z,19.48
2022-08-07T20:37:23.236Z,19.29
2022-08-07T20:40:03.579Z,19.13
2022-08-07T20:42:33.581Z,18.96
2022-08-07T20:45:04.568Z,18.84
2022-08-07T20:47:56.433Z,18.81
2022-08-07T20:50:26.890Z,18.75
2022-08-07T20:52:54.001Z,18.70
2022-08-07T20:55:23.938Z,18.65
2022-08-07T20:58:02.445Z,18.60
2022-08-07T21:00:44.423Z,18.45
2022-08-07T21:03:16.151Z,18.35
2022-08-07T21:05:56.568Z,18.24
2022-08-07T21:09:00.952Z,18.12
2022-08-07T21:11:49.927Z,17.93
2022-08-07T21:14:34.263Z,17.93
2022-08-07T21:18:03.948Z,17.89
2022-08-07T21:20:00.822Z,17.85
2022-08-07T21:22:39.513Z,17.81
2022-08-07T21:25:12.144Z,17.72
2022-08-07T21:28:07.732Z,17.66
2022-08-07T21:30:51.984Z,17.60
2022-08-07T21:33:38.405Z,17.47
2022-08-07T21:36:31.245Z,17.35
2022-08-07T21:39:05.590Z,17.35
2022-08-07T21:42:37.449Z,17.25
2022-08-07T21:46:03.266Z,17.18
2022-08-07T21:47:55.955Z,17.12
2022-08-07T21:50:27.494Z,17.04
2022-08-07T21:53:07.550Z,16.98
2022-08-07T21:55:55.426Z,16.87
2022-08-07T21:58:45.994Z,16.87
2022-08-07T22:01:20.168Z,16.85
2022-08-07T22:04:12.588Z,16.76
2022-08-07T22:07:12.348Z,16.63
2022-08-07T22:09:54.153Z,16.58
2022-08-07T22:12:27.124Z,16.62
2022-08-07T22:16:43.568Z,16.61
2022-08-07T22:18:03.068Z,16.56
2022-08-07T22:20:44.347Z,16.48
2022-08-07T22:23:17.838Z,16.34
2022-08-07T22:26:17.648Z,16.23
2022-08-07T22:28:58.119Z,16.13
2022-08-07T22:31:56.280Z,16.04
2022-08-07T22:34:55.475Z,16.05
2022-08-07T22:37:22.333Z,16.07
2022-08-07T22:40:05.091Z,15.97
2022-08-07T22:42:33.754Z,15.94
2022-08-07T22:45:03.524Z,15.84
2022-08-07T22:47:49.453Z,15.76
2022-08-07T22:50:33.156Z,15.74
2022-08-07T22:54:07.902Z,15.81
2022-08-07T22:56:49.529Z,15.70
2022-08-07T22:59:52.739Z,15.69
2022-08-07T23:02:54.471Z,15.61
2022-08-07T23:06:07.469Z,15.67
2022-08-07T23:08:52.787Z,15.68
2022-08-07T23:12:32.759Z,15.53
2022-08-07T23:15:00.277Z,15.41
2022-08-07T23:17:56.286Z,15.30
2022-08-07T23:20:51.202Z,15.30
2022-08-07T23:24:06.527Z,15.23
2022-08-07T23:26:30.800Z,15.17
2022-08-07T23:29:43.110Z,15.15
2022-08-07T23:34:22.443Z,15.16
2022-08-07T23:35:27.228Z,15.04
2022-08-07T23:38:54.927Z,15.08
2022-08-07T23:41:47.686Z,15.12
2022-08-07T23:44:37.391Z,15.05
2022-08-07T23:47:29.691Z,15.05
2022-08-07T23:50:11.793Z,15.02
2022-08-07T23:53:11.828Z,15.03
2022-08-07T23:55:55.580Z,14.94
2022-08-07T23:59:10.453Z,14.88
